sensor_id;sensor_type;location;lat;lon;timestamp;pressure;altitude;pressure_sealevel;temperature;humidity
7990;BME280;4040;42.848;23.034;2024-01-15T00:01:22;94367.69;;;-4.55;100.00
7990;BME280;4040;42.848;23.034;2024-01-15T00:03:50;94380.94;;;-4.43;100.00
7990;BME280;4040;42.848;23.034;2024-01-15T00:06:17;94368.97;;;-4.61;100.00
7990;BME280;4040;42.848;23.034;2024-01-15T00:08:45;94376.75;;;-4.44;100.00
7990;BME280;4040;42.848;23.034;2024-01-15T00:11:12;94372.34;;;-4.52;100.00
7990;BME280;4040;42.848;23.034;2024-01-15T00:13:41;94353.97;;;-4.60;100.00
7990;BME280;4040;42.848;23.034;2024-01-15T00:16:09;94378.78;;;-4.41;100.00
7990;BME280;4040;42.848;23.034;2024-01-15T00:18:36;94378.78;;;-4.41;100.00
7990;BME280;4040;42.848;23.034;2024-01-15T00:21:04;94379.22;;;-4.39;100.00
7990;BME280;4040;42.848;23.034;2024-01-15T00:23:31;94355.41;;;-4.63;100.00
7990;BME280;4040;42.848;23.034;2024-01-15T00:25:59;94385.28;;;-4.47;100.00
7990;BME280;4040;42.848;23.034;2024-01-15T00:28:26;94377.16;;;-4.62;100.00
7990;BME280;4040;42.848;23.034;2024-01-15T00:30:55;94384.88;;;-4.57;100.00
7990;BME280;4040;42.848;23.034;2024-01-15T00:33:23;94381.31;;;-4.53;100.00
7990;BME280;4040;42.848;23.034;2024-01-15T00:35:50;94295.66;;;-5.03;100.00
7990;BME280;4040;42.848;23.034;2024-01-15T00:38:18;94379.59;;;-4.49;100.00
7990;BME280;4040;42.848;23.034;2024-01-15T00:40:46;94376.06;;;-4.53;100.00
7990;BME280;4040;42.848;23.034;2024-01-15T00:43:13;94345.13;;;-4.76;100.00
7990;BME280;4040;42.848;23.034;2024-01-15T00:45:41;94380.03;;;-4.47;100.00
7990;BME280;4040;42.848;23.034;2024-01-15T00:48:10;94373.06;;;-4.43;100.00
7990;BME280;4040;42.848;23.034;2024-01-15T00:50:37;94368.25;;;-4.41;100.00
7990;BME280;4040;42.848;23.034;2024-01-15T00:53:05;94358.38;;;-4.44;100.00
7990;BME280;4040;42.848;23.034;2024-01-15T00:55:32;94360.72;;;-4.22;100.00
7990;BME280;4040;42.848;23.034;2024-01-15T00:58:00;94363.16;;;-4.17;100.00
7990;BME280;4040;42.848;23.034;2024-01-15T01:00:27;94357.78;;;-4.00;100.00
7990;BME280;4040;42.848;23.034;2024-01-15T01:02:54;94338.53;;;-4.33;100.00
7990;BME280;4040;42.848;23.034;2024-01-15T01:05:23;94365.59;;;-4.12;100.00
7990;BME280;4040;42.848;23.034;2024-01-15T01:07:51;94366.75;;;-4.01;100.00
7990;BME280;4040;42.848;23.034;2024-01-15T01:10:18;94290.81;;;-4.43;100.00
7990;BME280;4040;42.848;23.034;2024-01-15T01:12:46;94354.41;;;-3.88;100.00
7990;BME280;4040;42.848;23.034;2024-01-15T01:15:13;94360.19;;;-3.95;100.00
7990;BME280;4040;42.848;23.034;2024-01-15T01:17:41;94357.66;;;-4.03;100.00
7990;BME280;4040;42.848;23.034;2024-01-15T01:20:09;94353.78;;;-4.06;100.00
7990;BME280;4040;42.848;23.034;2024-01-15T01:22:38;94348.25;;;-4.13;100.00
7990;BME280;4040;42.848;23.034;2024-01-15T01:25:06;94322.13;;;-4.30;100.00
7990;BME280;4040;42.848;23.034;2024-01-15T01:27:35;94327.75;;;-4.40;100.00
7990;BME280;4040;42.848;23.034;2024-01-15T01:30:04;94347.75;;;-4.27;100.00
7990;BME280;4040;42.848;23.034;2024-01-15T01:32:32;94341.75;;;-4.27;100.00
7990;BME280;4040;42.848;23.034;2024-01-15T01:34:59;94342.44;;;-4.18;100.00
7990;BME280;4040;42.848;23.034;2024-01-15T01:37:27;94340.59;;;-4.18;100.00
7990;BME280;4040;42.848;23.034;2024-01-15T01:39:56;94334.34;;;-4.34;100.00
7990;BME280;4040;42.848;23.034;2024-01-15T01:42:23;94301.06;;;-4.71;100.00
7990;BME280;4040;42.848;23.034;2024-01-15T01:44:51;94325.94;;;-4.48;100.00
7990;BME280;4040;42.848;23.034;2024-01-15T01:47:18;94324.91;;;-4.35;100.00
7990;BME280;4040;42.848;23.034;2024-01-15T01:49:46;94261.81;;;-4.76;100.00
7990;BME280;4040;42.848;23.034;2024-01-15T01:52:14;94322.69;;;-4.24;100.00
7990;BME280;4040;42.848;23.034;2024-01-15T01:54:41;94326.34;;;-4.37;100.00
7990;BME280;4040;42.848;23.034;2024-01-15T01:57:10;94306.72;;;-4.40;100.00
7990;BME280;4040;42.848;23.034;2024-01-15T01:59:39;94303.84;;;-4.26;100.00
7990;BME280;4040;42.848;23.034;2024-01-15T02:02:07;94299.34;;;-4.26;100.00
7990;BME280;4040;42.848;23.034;2024-01-15T02:04:36;94294.28;;;-4.31;100.00
7990;BME280;4040;42.848;23.034;2024-01-15T02:07:04;94287.88;;;-4.21;100.00
7990;BME280;4040;42.848;23.034;2024-01-15T02:09:32;94287.75;;;-4.25;100.00
7990;BME280;4040;42.848;23.034;2024-01-15T02:11:59;94228.84;;;-4.65;100.00
7990;BME280;4040;42.848;23.034;2024-01-15T02:14:28;94267.38;;;-4.28;100.00
7990;BME280;4040;42.848;23.034;2024-01-15T02:16:56;94268.16;;;-4.27;100.00
7990;BME280;4040;42.848;23.034;2024-01-15T02:19:24;94270.19;;;-4.33;100.00
7990;BME280;4040;42.848;23.034;2024-01-15T02:21:52;94265.06;;;-4.50;100.00
7990;BME280;4040;42.848;23.034;2024-01-15T02:24:21;94276.59;;;-4.63;100.00
7990;BME280;4040;42.848;23.034;2024-01-15T02:26:48;94276.59;;;-4.63;100.00
7990;BME280;4040;42.848;23.034;2024-01-15T02:29:16;94275.81;;;-4.63;100.00
7990;BME280;4040;42.848;23.034;2024-01-15T02:31:44;94277.84;;;-4.69;100.00
7990;BME280;4040;42.848;23.034;2024-01-15T02:34:12;94288.09;;;-4.76;100.00
7990;BME280;4040;42.848;23.034;2024-01-15T02:36:39;94283.84;;;-4.89;100.00
7990;BME280;4040;42.848;23.034;2024-01-15T02:39:07;94275.66;;;-4.87;100.00
7990;BME280;4040;42.848;23.034;2024-01-15T02:41:35;94274.28;;;-4.93;100.00
7990;BME280;4040;42.848;23.034;2024-01-15T02:44:03;94273.06;;;-4.96;100.00
7990;BME280;4040;42.848;23.034;2024-01-15T02:46:31;94234.16;;;-5.22;100.00
7990;BME280;4040;42.848;23.034;2024-01-15T02:48:58;94261.88;;;-5.04;100.00
7990;BME280;4040;42.848;23.034;2024-01-15T02:51:25;94262.63;;;-5.04;100.00
7990;BME280;4040;42.848;23.034;2024-01-15T02:53:53;94256.13;;;-5.06;100.00
7990;BME280;4040;42.848;23.034;2024-01-15T02:56:20;94249.06;;;-4.86;100.00
7990;BME280;4040;42.848;23.034;2024-01-15T02:58:49;94242.91;;;-4.90;100.00
7990;BME280;4040;42.848;23.034;2024-01-15T03:01:18;94228.41;;;-4.87;100.00
7990;BME280;4040;42.848;23.034;2024-01-15T03:03:46;94228.16;;;-4.74;100.00
7990;BME280;4040;42.848;23.034;2024-01-15T03:06:13;94154.47;;;-5.18;100.00
7990;BME280;4040;42.848;23.034;2024-01-15T03:08:41;94152.69;;;-5.05;100.00
7990;BME280;4040;42.848;23.034;2024-01-15T03:11:09;94210.59;;;-4.82;100.00
7990;BME280;4040;42.848;23.034;2024-01-15T03:13:36;94216.34;;;-4.68;100.00
7990;BME280;4040;42.848;23.034;2024-01-15T03:16:06;94223.66;;;-4.53;100.00
7990;BME280;4040;42.848;23.034;2024-01-15T03:18:33;94209.84;;;-4.62;100.00
7990;BME280;4040;42.848;23.034;2024-01-15T03:21:01;94210.06;;;-4.55;100.00
7990;BME280;4040;42.848;23.034;2024-01-15T03:23:28;94213.78;;;-4.56;100.00
7990;BME280;4040;42.848;23.034;2024-01-15T03:25:55;94213.34;;;-4.58;100.00
7990;BME280;4040;42.848;23.034;2024-01-15T03:28:23;94216.75;;;-4.57;100.00
7990;BME280;4040;42.848;23.034;2024-01-15T03:30:50;94150.75;;;-4.97;100.00
7990;BME280;4040;42.848;23.034;2024-01-15T03:33:19;94226.84;;;-4.27;100.00
7990;BME280;4040;42.848;23.034;2024-01-15T03:35:47;94211.50;;;-4.25;100.00
7990;BME280;4040;42.848;23.034;2024-01-15T03:38:14;94211.81;;;-4.06;100.00
7990;BME280;4040;42.848;23.034;2024-01-15T03:40:42;94210.97;;;-3.98;100.00
7990;BME280;4040;42.848;23.034;2024-01-15T03:43:09;94204.34;;;-4.04;100.00
7990;BME280;4040;42.848;23.034;2024-01-15T03:45:37;94204.84;;;-3.90;100.00
7990;BME280;4040;42.848;23.034;2024-01-15T03:48:05;94195.63;;;-3.96;100.00
7990;BME280;4040;42.848;23.034;2024-01-15T03:50:34;94211.91;;;-3.70;100.00
7990;BME280;4040;42.848;23.034;2024-01-15T03:53:01;94217.59;;;-3.68;100.00
7990;BME280;4040;42.848;23.034;2024-01-15T03:55:29;94189.53;;;-3.76;100.00
7990;BME280;4040;42.848;23.034;2024-01-15T03:57:56;94202.25;;;-3.54;100.00
7990;BME280;4040;42.848;23.034;2024-01-15T04:00:23;94208.41;;;-3.50;100.00
7990;BME280;4040;42.848;23.034;2024-01-15T04:02:51;94201.59;;;-3.51;100.00
7990;BME280;4040;42.848;23.034;2024-01-15T04:05:19;94192.41;;;-3.57;100.00
7990;BME280;4040;42.848;23.034;2024-01-15T04:07:48;94192.41;;;-3.57;100.00
7990;BME280;4040;42.848;23.034;2024-01-15T04:10:16;94207.09;;;-3.44;100.00
7990;BME280;4040;42.848;23.034;2024-01-15T04:12:44;94160.56;;;-3.88;100.00
7990;BME280;4040;42.848;23.034;2024-01-15T04:15:12;94181.38;;;-3.95;100.00
7990;BME280;4040;42.848;23.034;2024-01-15T04:17:39;94208.34;;;-3.86;100.00
7990;BME280;4040;42.848;23.034;2024-01-15T04:20:08;94199.13;;;-3.92;100.00
7990;BME280;4040;42.848;23.034;2024-01-15T04:22:36;94195.63;;;-3.96;100.00
7990;BME280;4040;42.848;23.034;2024-01-15T04:25:06;94192.78;;;-3.91;100.00
7990;BME280;4040;42.848;23.034;2024-01-15T04:27:34;94197.41;;;-3.88;100.00
7990;BME280;4040;42.848;23.034;2024-01-15T04:30:01;94188.16;;;-3.94;100.00
7990;BME280;4040;42.848;23.034;2024-01-15T04:32:29;94192.56;;;-3.98;100.00
7990;BME280;4040;42.848;23.034;2024-01-15T04:34:56;94192.56;;;-3.98;100.00
7990;BME280;4040;42.848;23.034;2024-01-15T04:37:24;94176.78;;;-3.98;100.00
7990;BME280;4040;42.848;23.034;2024-01-15T04:39:51;94186.63;;;-3.95;100.00
7990;BME280;4040;42.848;23.034;2024-01-15T04:42:22;94185.75;;;-3.99;100.00
7990;BME280;4040;42.848;23.034;2024-01-15T04:44:49;94160.41;;;-4.15;100.00
7990;BME280;4040;42.848;23.034;2024-01-15T04:47:17;94169.31;;;-3.96;100.00
7990;BME280;4040;42.848;23.034;2024-01-15T04:49:44;94179.97;;;-3.92;100.00
7990;BME280;4040;42.848;23.034;2024-01-15T04:52:12;94176.34;;;-3.88;100.00
7990;BME280;4040;42.848;23.034;2024-01-15T04:54:39;94192.56;;;-3.86;100.00
7990;BME280;4040;42.848;23.034;2024-01-15T04:57:07;94183.28;;;-3.83;100.00
7990;BME280;4040;42.848;23.034;2024-01-15T04:59:36;94175.69;;;-3.85;100.00
7990;BME280;4040;42.848;23.034;2024-01-15T05:02:03;94180.72;;;-3.92;100.00
7990;BME280;4040;42.848;23.034;2024-01-15T05:04:31;94180.09;;;-3.89;100.00
7990;BME280;4040;42.848;23.034;2024-01-15T05:06:58;94184.81;;;-3.82;100.00
7990;BME280;4040;42.848;23.034;2024-01-15T05:09:26;94097.84;;;-4.22;100.00
7990;BME280;4040;42.848;23.034;2024-01-15T05:11:54;94170.78;;;-3.74;100.00
7990;BME280;4040;42.848;23.034;2024-01-15T05:14:22;94168.25;;;-3.71;100.00
7990;BME280;4040;42.848;23.034;2024-01-15T05:16:50;94171.56;;;-3.62;100.00
7990;BME280;4040;42.848;23.034;2024-01-15T05:19:18;94150.84;;;-3.63;100.00
7990;BME280;4040;42.848;23.034;2024-01-15T05:21:45;94156.00;;;-3.55;100.00
7990;BME280;4040;42.848;23.034;2024-01-15T05:24:13;94083.22;;;-3.87;100.00
7990;BME280;4040;42.848;23.034;2024-01-15T05:26:40;94171.66;;;-3.34;100.00
7990;BME280;4040;42.848;23.034;2024-01-15T05:29:08;94108.63;;;-3.67;100.00
7990;BME280;4040;42.848;23.034;2024-01-15T05:31:36;94156.00;;;-3.43;100.00
7990;BME280;4040;42.848;23.034;2024-01-15T05:34:05;94147.66;;;-3.45;100.00
7990;BME280;4040;42.848;23.034;2024-01-15T05:36:32;94146.34;;;-3.51;100.00
7990;BME280;4040;42.848;23.034;2024-01-15T05:38:59;94122.00;;;-3.72;100.00
7990;BME280;4040;42.848;23.034;2024-01-15T05:41:28;94159.72;;;-3.68;100.00
7990;BME280;4040;42.848;23.034;2024-01-15T05:43:56;94104.44;;;-4.04;100.00
7990;BME280;4040;42.848;23.034;2024-01-15T05:46:23;94142.19;;;-3.76;100.00
7990;BME280;4040;42.848;23.034;2024-01-15T05:48:51;94141.94;;;-3.83;100.00
7990;BME280;4040;42.848;23.034;2024-01-15T05:51:20;94143.91;;;-3.92;100.00
7990;BME280;4040;42.848;23.034;2024-01-15T05:53:47;94151.91;;;-3.88;100.00
7990;BME280;4040;42.848;23.034;2024-01-15T05:56:15;94154.00;;;-3.82;100.00
7990;BME280;4040;42.848;23.034;2024-01-15T05:58:42;94149.06;;;-3.83;100.00
7990;BME280;4040;42.848;23.034;2024-01-15T06:01:10;94137.22;;;-3.89;100.00
7990;BME280;4040;42.848;23.034;2024-01-15T06:03:37;94133.06;;;-3.78;100.00
7990;BME280;4040;42.848;23.034;2024-01-15T06:06:05;94142.84;;;-3.79;100.00
7990;BME280;4040;42.848;23.034;2024-01-15T06:08:34;94144.56;;;-3.71;100.00
7990;BME280;4040;42.848;23.034;2024-01-15T06:11:01;94139.97;;;-3.62;100.00
7990;BME280;4040;42.848;23.034;2024-01-15T06:13:29;94145.25;;;-3.50;100.00
7990;BME280;4040;42.848;23.034;2024-01-15T06:15:56;94077.50;;;-3.77;100.00
7990;BME280;4040;42.848;23.034;2024-01-15T06:18:24;94126.16;;;-3.35;100.00
7990;BME280;4040;42.848;23.034;2024-01-15T06:20:51;94140.41;;;-3.12;100.00
7990;BME280;4040;42.848;23.034;2024-01-15T06:23:19;94138.63;;;-2.96;100.00
7990;BME280;4040;42.848;23.034;2024-01-15T06:25:48;94137.50;;;-2.83;100.00
7990;BME280;4040;42.848;23.034;2024-01-15T06:28:15;94147.75;;;-2.66;100.00
7990;BME280;4040;42.848;23.034;2024-01-15T06:30:43;94131.03;;;-2.58;100.00
7990;BME280;4040;42.848;23.034;2024-01-15T06:33:10;94144.63;;;-2.44;100.00
7990;BME280;4040;42.848;23.034;2024-01-15T06:35:37;94076.84;;;-2.71;100.00
7990;BME280;4040;42.848;23.034;2024-01-15T06:38:05;94090.75;;;-2.58;100.00
7990;BME280;4040;42.848;23.034;2024-01-15T06:40:32;94138.19;;;-2.31;100.00
7990;BME280;4040;42.848;23.034;2024-01-15T06:43:02;94142.44;;;-2.27;100.00
7990;BME280;4040;42.848;23.034;2024-01-15T06:45:29;94145.34;;;-2.16;100.00
7990;BME280;4040;42.848;23.034;2024-01-15T06:47:57;94150.50;;;-2.08;100.00
7990;BME280;4040;42.848;23.034;2024-01-15T06:50:24;94140.69;;;-2.07;100.00
7990;BME280;4040;42.848;23.034;2024-01-15T06:52:51;94141.81;;;-2.08;100.00
7990;BME280;4040;42.848;23.034;2024-01-15T06:55:19;94137.88;;;-1.99;100.00
7990;BME280;4040;42.848;23.034;2024-01-15T06:57:46;94131.25;;;-2.08;100.00
7990;BME280;4040;42.848;23.034;2024-01-15T07:00:16;94137.81;;;-2.02;100.00
7990;BME280;4040;42.848;23.034;2024-01-15T07:02:45;94151.09;;;-1.99;100.00
7990;BME280;4040;42.848;23.034;2024-01-15T07:05:12;94145.41;;;-1.85;100.00
7990;BME280;4040;42.848;23.034;2024-01-15T07:07:40;94141.59;;;-1.88;100.00
7990;BME280;4040;42.848;23.034;2024-01-15T07:10:08;94153.75;;;-1.83;100.00
7990;BME280;4040;42.848;23.034;2024-01-15T07:12:36;94152.66;;;-1.82;100.00
7990;BME280;4040;42.848;23.034;2024-01-15T07:15:04;94161.00;;;-1.80;100.00
7990;BME280;4040;42.848;23.034;2024-01-15T07:17:35;94156.44;;;-1.95;100.00
7990;BME280;4040;42.848;23.034;2024-01-15T07:20:06;94157.81;;;-2.01;100.00
7990;BME280;4040;42.848;23.034;2024-01-15T07:22:35;94148.25;;;-2.21;100.00
7990;BME280;4040;42.848;23.034;2024-01-15T07:25:03;94146.22;;;-2.12;100.00
7990;BME280;4040;42.848;23.034;2024-01-15T07:27:32;94142.66;;;-2.04;100.00
7990;BME280;4040;42.848;23.034;2024-01-15T07:29:59;94139.59;;;-2.06;100.00
7990;BME280;4040;42.848;23.034;2024-01-15T07:32:27;94129.94;;;-2.14;100.00
7990;BME280;4040;42.848;23.034;2024-01-15T07:34:56;94131.16;;;-2.12;100.00
7990;BME280;4040;42.848;23.034;2024-01-15T07:37:25;94138.31;;;-2.12;100.00
7990;BME280;4040;42.848;23.034;2024-01-15T07:39:52;94145.78;;;-2.14;100.00
7990;BME280;4040;42.848;23.034;2024-01-15T07:42:20;94130.72;;;-2.14;100.00
7990;BME280;4040;42.848;23.034;2024-01-15T07:44:47;94118.91;;;-2.04;100.00
7990;BME280;4040;42.848;23.034;2024-01-15T07:47:16;94111.09;;;-2.01;100.00
7990;BME280;4040;42.848;23.034;2024-01-15T07:49:44;94134.44;;;-1.72;100.00
7990;BME280;4040;42.848;23.034;2024-01-15T07:52:13;94144.66;;;-1.55;100.00
7990;BME280;4040;42.848;23.034;2024-01-15T07:54:40;94143.53;;;-1.38;100.00
7990;BME280;4040;42.848;23.034;2024-01-15T07:57:08;94148.13;;;-1.35;100.00
7990;BME280;4040;42.848;23.034;2024-01-15T07:59:35;94152.06;;;-1.29;100.00
7990;BME280;4040;42.848;23.034;2024-01-15T08:02:03;94144.56;;;-1.27;100.00
7990;BME280;4040;42.848;23.034;2024-01-15T08:04:30;94140.63;;;-1.33;100.00
7990;BME280;4040;42.848;23.034;2024-01-15T08:06:58;94137.59;;;-1.01;100.00
7990;BME280;4040;42.848;23.034;2024-01-15T08:09:28;94123.53;;;-0.51;100.00
7990;BME280;4040;42.848;23.034;2024-01-15T08:11:55;94126.00;;;-0.02;100.00
7990;BME280;4040;42.848;23.034;2024-01-15T08:14:23;94123.91;;;0.52;100.00
7990;BME280;4040;42.848;23.034;2024-01-15T08:16:50;94125.56;;;1.68;100.00
7990;BME280;4040;42.848;23.034;2024-01-15T08:19:18;94127.03;;;3.32;100.00
7990;BME280;4040;42.848;23.034;2024-01-15T08:21:45;94117.44;;;3.92;100.00
7990;BME280;4040;42.848;23.034;2024-01-15T08:24:13;94119.50;;;3.48;97.66
7990;BME280;4040;42.848;23.034;2024-01-15T08:26:42;94097.91;;;2.95;98.71
7990;BME280;4040;42.848;23.034;2024-01-15T08:29:09;94125.16;;;2.82;100.00
7990;BME280;4040;42.848;23.034;2024-01-15T08:31:37;94117.19;;;2.82;100.00
7990;BME280;4040;42.848;23.034;2024-01-15T08:34:04;94115.66;;;2.81;100.00
7990;BME280;4040;42.848;23.034;2024-01-15T08:36:32;94102.00;;;2.39;100.00
7990;BME280;4040;42.848;23.034;2024-01-15T08:39:01;94110.53;;;1.82;100.00
7990;BME280;4040;42.848;23.034;2024-01-15T08:41:31;94110.28;;;1.61;100.00
7990;BME280;4040;42.848;23.034;2024-01-15T08:44:00;94099.03;;;1.38;100.00
7990;BME280;4040;42.848;23.034;2024-01-15T08:46:28;94089.47;;;1.04;100.00
7990;BME280;4040;42.848;23.034;2024-01-15T08:48:56;94090.25;;;0.79;100.00
7990;BME280;4040;42.848;23.034;2024-01-15T08:51:23;94092.25;;;1.11;100.00
7990;BME280;4040;42.848;23.034;2024-01-15T08:53:51;94092.59;;;1.39;100.00
7990;BME280;4040;42.848;23.034;2024-01-15T08:56:18;94085.44;;;1.76;100.00
7990;BME280;4040;42.848;23.034;2024-01-15T08:58:45;94081.72;;;1.81;100.00
7990;BME280;4040;42.848;23.034;2024-01-15T09:01:14;94077.34;;;1.99;100.00
7990;BME280;4040;42.848;23.034;2024-01-15T09:03:42;94072.91;;;2.13;100.00
7990;BME280;4040;42.848;23.034;2024-01-15T09:06:10;94073.59;;;2.03;100.00
7990;BME280;4040;42.848;23.034;2024-01-15T09:08:37;94066.69;;;1.95;100.00
7990;BME280;4040;42.848;23.034;2024-01-15T09:11:05;94058.59;;;3.32;100.00
7990;BME280;4040;42.848;23.034;2024-01-15T09:13:32;94055.94;;;5.94;89.47
7990;BME280;4040;42.848;23.034;2024-01-15T09:16:00;94046.50;;;7.62;74.71
7990;BME280;4040;42.848;23.034;2024-01-15T09:18:29;94042.81;;;7.52;69.93
7990;BME280;4040;42.848;23.034;2024-01-15T09:20:57;94036.75;;;7.08;68.54
7990;BME280;4040;42.848;23.034;2024-01-15T09:23:25;94036.53;;;5.73;69.46
7990;BME280;4040;42.848;23.034;2024-01-15T09:25:52;94037.56;;;4.69;75.67
7990;BME280;4040;42.848;23.034;2024-01-15T09:28:20;94036.72;;;3.81;82.90
7990;BME280;4040;42.848;23.034;2024-01-15T09:30:48;94025.06;;;3.14;92.22
7990;BME280;4040;42.848;23.034;2024-01-15T09:33:16;94009.75;;;2.90;100.00
7990;BME280;4040;42.848;23.034;2024-01-15T09:35:45;94009.69;;;2.83;100.00
7990;BME280;4040;42.848;23.034;2024-01-15T09:38:12;93991.50;;;2.88;100.00
7990;BME280;4040;42.848;23.034;2024-01-15T09:40:43;93993.69;;;3.65;95.79
7990;BME280;4040;42.848;23.034;2024-01-15T09:43:13;94008.63;;;4.18;89.01
7990;BME280;4040;42.848;23.034;2024-01-15T09:45:42;93997.19;;;4.63;83.38
7990;BME280;4040;42.848;23.034;2024-01-15T09:48:10;93986.72;;;5.38;77.24
7990;BME280;4040;42.848;23.034;2024-01-15T09:50:38;93986.53;;;5.73;71.38
7990;BME280;4040;42.848;23.034;2024-01-15T09:53:07;93978.91;;;5.82;70.47
7990;BME280;4040;42.848;23.034;2024-01-15T09:55:36;93974.47;;;5.44;69.79
7990;BME280;4040;42.848;23.034;2024-01-15T09:58:04;93966.91;;;5.25;70.05
7990;BME280;4040;42.848;23.034;2024-01-15T10:00:33;93939.19;;;4.98;68.16
7990;BME280;4040;42.848;23.034;2024-01-15T10:03:05;93954.34;;;5.29;69.19
7990;BME280;4040;42.848;23.034;2024-01-15T10:05:33;93950.59;;;5.06;69.58
7990;BME280;4040;42.848;23.034;2024-01-15T10:08:01;93952.47;;;5.12;71.63
7990;BME280;4040;42.848;23.034;2024-01-15T10:10:31;93938.34;;;5.15;73.60
7990;BME280;4040;42.848;23.034;2024-01-15T10:12:59;93919.28;;;5.27;68.71
7990;BME280;4040;42.848;23.034;2024-01-15T10:15:27;93914.69;;;5.24;68.16
7990;BME280;4040;42.848;23.034;2024-01-15T10:17:54;93922.34;;;5.19;67.99
7990;BME280;4040;42.848;23.034;2024-01-15T10:20:22;93914.78;;;5.03;68.07
7990;BME280;4040;42.848;23.034;2024-01-15T10:22:50;93904.91;;;4.90;68.54
7990;BME280;4040;42.848;23.034;2024-01-15T10:25:18;93907.22;;;4.88;69.36
7990;BME280;4040;42.848;23.034;2024-01-15T10:28:00;93903.66;;;5.15;68.08
7990;BME280;4040;42.848;23.034;2024-01-15T10:30:28;93889.25;;;6.62;65.18
7990;BME280;4040;42.848;23.034;2024-01-15T10:32:59;93859.03;;;8.54;58.11
7990;BME280;4040;42.848;23.034;2024-01-15T10:35:30;93870.38;;;8.61;53.16
7990;BME280;4040;42.848;23.034;2024-01-15T10:37:58;93886.94;;;7.84;54.30
7990;BME280;4040;42.848;23.034;2024-01-15T10:40:26;93881.03;;;7.43;57.20
7990;BME280;4040;42.848;23.034;2024-01-15T10:42:54;93873.81;;;7.40;57.72
7990;BME280;4040;42.848;23.034;2024-01-15T10:45:22;93873.00;;;7.43;58.40
7990;BME280;4040;42.848;23.034;2024-01-15T10:47:50;93875.91;;;6.92;59.17
7990;BME280;4040;42.848;23.034;2024-01-15T10:50:18;93880.22;;;6.49;61.05
7990;BME280;4040;42.848;23.034;2024-01-15T10:52:46;93869.97;;;6.00;63.22
7990;BME280;4040;42.848;23.034;2024-01-15T10:55:14;93841.38;;;5.94;63.73
7990;BME280;4040;42.848;23.034;2024-01-15T10:57:44;93861.13;;;6.47;64.11
7990;BME280;4040;42.848;23.034;2024-01-15T11:00:13;93851.09;;;7.22;63.31
7990;BME280;4040;42.848;23.034;2024-01-15T11:02:42;93846.94;;;6.87;61.74
7990;BME280;4040;42.848;23.034;2024-01-15T11:05:10;93819.81;;;6.52;63.06
7990;BME280;4040;42.848;23.034;2024-01-15T11:07:39;93834.22;;;6.61;63.44
7990;BME280;4040;42.848;23.034;2024-01-15T11:10:08;93840.88;;;6.83;63.58
7990;BME280;4040;42.848;23.034;2024-01-15T11:12:56;93846.72;;;7.61;62.25
7990;BME280;4040;42.848;23.034;2024-01-15T11:15:23;93839.50;;;8.73;59.11
7990;BME280;4040;42.848;23.034;2024-01-15T11:18:02;93822.75;;;10.39;55.88
7990;BME280;4040;42.848;23.034;2024-01-15T11:20:31;93823.75;;;12.30;47.76
7990;BME280;4040;42.848;23.034;2024-01-15T11:22:58;93813.47;;;12.25;46.18
7990;BME280;4040;42.848;23.034;2024-01-15T11:25:35;93822.41;;;11.10;48.42
7990;BME280;4040;42.848;23.034;2024-01-15T11:28:04;93825.69;;;9.81;51.64
7990;BME280;4040;42.848;23.034;2024-01-15T11:30:32;93821.94;;;9.07;52.94
7990;BME280;4040;42.848;23.034;2024-01-15T11:33:04;93821.84;;;8.33;56.29
7990;BME280;4040;42.848;23.034;2024-01-15T11:35:47;93822.97;;;7.63;59.84
7990;BME280;4040;42.848;23.034;2024-01-15T11:38:27;93824.59;;;7.57;61.84
7990;BME280;4040;42.848;23.034;2024-01-15T11:40:55;93804.84;;;7.44;62.42
7990;BME280;4040;42.848;23.034;2024-01-15T11:43:22;93791.34;;;7.28;63.38
7990;BME280;4040;42.848;23.034;2024-01-15T11:45:52;93807.06;;;7.52;64.13
7990;BME280;4040;42.848;23.034;2024-01-15T11:48:22;93794.19;;;8.36;62.88
7990;BME280;4040;42.848;23.034;2024-01-15T11:50:52;93796.97;;;8.52;61.56
7990;BME280;4040;42.848;23.034;2024-01-15T11:53:34;93798.09;;;8.31;61.97
7990;BME280;4040;42.848;23.034;2024-01-15T11:56:09;93799.09;;;7.72;62.80
7990;BME280;4040;42.848;23.034;2024-01-15T11:58:39;93795.63;;;6.92;64.61
7990;BME280;4040;42.848;23.034;2024-01-15T12:01:07;93798.81;;;6.50;66.10
7990;BME280;4040;42.848;23.034;2024-01-15T12:03:36;93792.94;;;6.32;67.60
7990;BME280;4040;42.848;23.034;2024-01-15T12:06:05;93790.28;;;6.29;69.65
7990;BME280;4040;42.848;23.034;2024-01-15T12:08:33;93789.44;;;6.35;70.00
7990;BME280;4040;42.848;23.034;2024-01-15T12:11:05;93784.53;;;6.30;70.66
7990;BME280;4040;42.848;23.034;2024-01-15T12:13:33;93775.59;;;6.44;71.62
7990;BME280;4040;42.848;23.034;2024-01-15T12:16:01;93776.25;;;6.51;71.46
7990;BME280;4040;42.848;23.034;2024-01-15T12:18:29;93771.66;;;6.55;71.69
7990;BME280;4040;42.848;23.034;2024-01-15T12:20:59;93780.91;;;6.47;73.39
7990;BME280;4040;42.848;23.034;2024-01-15T12:23:26;93773.44;;;6.32;74.37
7990;BME280;4040;42.848;23.034;2024-01-15T12:25:54;93763.63;;;6.22;75.74
7990;BME280;4040;42.848;23.034;2024-01-15T12:28:22;93753.13;;;6.04;77.18
7990;BME280;4040;42.848;23.034;2024-01-15T12:30:49;93754.91;;;6.14;77.50
7990;BME280;4040;42.848;23.034;2024-01-15T12:33:17;93751.44;;;6.17;77.94
7990;BME280;4040;42.848;23.034;2024-01-15T12:35:45;93754.31;;;6.37;77.79
7990;BME280;4040;42.848;23.034;2024-01-15T12:38:14;93742.03;;;6.39;76.57
7990;BME280;4040;42.848;23.034;2024-01-15T12:40:44;93750.28;;;6.52;76.97
7990;BME280;4040;42.848;23.034;2024-01-15T12:43:12;93743.03;;;6.52;76.78
7990;BME280;4040;42.848;23.034;2024-01-15T12:45:40;93744.16;;;6.51;76.62
7990;BME280;4040;42.848;23.034;2024-01-15T12:48:09;93737.47;;;6.36;78.06
7990;BME280;4040;42.848;23.034;2024-01-15T12:50:36;93740.16;;;6.36;78.35
7990;BME280;4040;42.848;23.034;2024-01-15T12:53:04;93744.97;;;6.48;78.49
7990;BME280;4040;42.848;23.034;2024-01-15T12:55:33;93734.56;;;6.57;77.85
7990;BME280;4040;42.848;23.034;2024-01-15T12:58:01;93738.03;;;6.54;78.09
7990;BME280;4040;42.848;23.034;2024-01-15T13:00:28;93733.31;;;6.65;77.36
7990;BME280;4040;42.848;23.034;2024-01-15T13:02:57;93734.19;;;6.55;77.92
7990;BME280;4040;42.848;23.034;2024-01-15T13:05:26;93737.69;;;6.52;79.33
7990;BME280;4040;42.848;23.034;2024-01-15T13:07:54;93730.41;;;6.53;80.09
7990;BME280;4040;42.848;23.034;2024-01-15T13:10:22;93733.56;;;6.44;80.48
7990;BME280;4040;42.848;23.034;2024-01-15T13:12:52;93725.97;;;6.39;80.71